Time;durP1;ratioP1;P1;durP2;ratioP2;P2;SDS_P1;SDS_P2;PMS_P1;PMS_P2;Temp;Humidity;BMP_temperature;BMP_pressure;BME280_temperature;BME280_humidity;BME280_pressure;Samples;Min_cycle;Max_cycle;Signal;HPM_P1;HPM_P2
2022/11/15 00:01:08;;;;;;;42.70;34.33;;;7.50;99.90;;;;;;5072382;28;20466;-43
2022/11/15 00:03:54;;;;;;;43.90;33.37;;;7.80;99.90;;;;;;5072523;28;20451;-45
2022/11/15 00:06:39;;;;;;;55.83;39.30;;;7.50;99.90;;;;;;5072684;28;20436;-43
2022/11/15 00:09:25;;;;;;;47.83;36.10;;;7.80;99.90;;;;;;5072401;28;20549;-44
2022/11/15 00:12:10;;;;;;;48.03;36.63;;;8.10;99.90;;;;;;5072531;28;20437;-45
2022/11/15 00:14:55;;;;;;;49.03;36.40;;;7.30;99.90;;;;;;5072420;28;20446;-44
2022/11/15 00:17:42;;;;;;;53.93;38.23;;;7.40;99.90;;;;;;5072621;28;20402;-44
2022/11/15 00:20:27;;;;;;;51.20;35.73;;;7.60;99.90;;;;;;5071700;28;20594;-43
2022/11/15 00:23:12;;;;;;;50.53;36.40;;;7.60;99.90;;;;;;5072457;28;20456;-45
2022/11/15 00:25:58;;;;;;;48.13;34.83;;;7.30;99.90;;;;;;5072237;28;20426;-43
2022/11/15 00:28:44;;;;;;;48.43;36.77;;;7.30;99.90;;;;;;5072014;28;20893;-43
2022/11/15 00:31:29;;;;;;;52.70;36.90;;;7.80;99.90;;;;;;5072349;28;20563;-42
2022/11/15 00:34:16;;;;;;;46.87;36.23;;;7.90;99.90;;;;;;5072372;28;20943;-43
2022/11/15 00:37:02;;;;;;;53.43;36.70;;;7.60;99.90;;;;;;5072873;28;20630;-42
2022/11/15 00:39:47;;;;;;;55.70;38.00;;;7.40;99.90;;;;;;5072136;28;20431;-44
2022/11/15 00:42:32;;;;;;;46.53;35.03;;;7.80;99.90;;;;;;5072426;28;20868;-43
2022/11/15 00:45:18;;;;;;;47.90;36.10;;;7.40;99.90;;;;;;5072612;28;20563;-43
2022/11/15 00:48:04;;;;;;;47.20;35.33;;;7.50;99.90;;;;;;5072339;28;20549;-44
2022/11/15 00:50:51;;;;;;;53.43;37.33;;;7.30;99.90;;;;;;5072477;28;20421;-43
2022/11/15 00:53:36;;;;;;;45.20;35.37;;;7.30;99.90;;;;;;5072639;28;20439;-43
2022/11/15 00:56:21;;;;;;;46.13;35.70;;;8.00;99.90;;;;;;5071718;28;20423;-43
2022/11/15 00:59:06;;;;;;;52.43;36.03;;;7.30;99.90;;;;;;5073088;28;20439;-43
2022/11/15 01:01:52;;;;;;;48.60;36.60;;;7.60;99.90;;;;;;5073226;28;20473;-42
2022/11/15 01:04:37;;;;;;;47.60;36.90;;;7.40;99.90;;;;;;5074901;28;20409;-43
2022/11/15 01:07:23;;;;;;;49.73;34.73;;;7.60;99.90;;;;;;5072211;28;20809;-44
2022/11/15 01:10:09;;;;;;;50.80;36.83;;;7.40;99.90;;;;;;5071761;28;20431;-44
2022/11/15 01:12:55;;;;;;;46.60;34.93;;;7.50;99.90;;;;;;5072019;28;20456;-43
2022/11/15 01:15:41;;;;;;;52.17;36.47;;;7.10;99.90;;;;;;5071726;28;20969;-43
2022/11/15 01:18:26;;;;;;;47.93;35.80;;;7.30;99.90;;;;;;5071359;28;20474;-44
2022/11/15 01:21:13;;;;;;;51.20;36.17;;;7.40;99.90;;;;;;5071930;28;20456;-46
2022/11/15 01:24:00;;;;;;;50.70;37.53;;;7.20;99.90;;;;;;5071755;28;20422;-43
2022/11/15 01:26:46;;;;;;;48.43;35.47;;;7.20;99.90;;;;;;5071674;28;20407;-44
2022/11/15 01:29:31;;;;;;;55.67;38.20;;;7.40;99.90;;;;;;5071073;28;20443;-43
2022/11/15 01:32:16;;;;;;;53.87;35.60;;;7.30;99.90;;;;;;5072165;28;20445;-43
2022/11/15 01:35:01;;;;;;;48.50;35.23;;;7.20;99.90;;;;;;5071232;28;20431;-43
2022/11/15 01:37:47;;;;;;;49.90;37.50;;;6.90;99.90;;;;;;5072994;28;20450;-43
2022/11/15 01:40:33;;;;;;;46.63;34.87;;;7.30;99.90;;;;;;5075279;28;20537;-43
2022/11/15 01:43:24;;;;;;;52.60;36.67;;;7.20;99.90;;;;;;5075210;28;20467;-44
2022/11/15 01:46:30;;;;;;;53.30;37.27;;;7.80;99.90;;;;;;5075282;28;20931;-43
2022/11/15 01:49:20;;;;;;;51.40;36.97;;;7.10;99.90;;;;;;5074803;28;20426;-43
2022/11/15 01:52:09;;;;;;;48.93;36.27;;;7.70;99.90;;;;;;5075023;28;20441;-43
2022/11/15 01:55:04;;;;;;;45.67;35.97;;;7.10;99.90;;;;;;5074925;28;20405;-44
2022/11/15 01:57:54;;;;;;;52.33;38.10;;;7.10;99.90;;;;;;5075272;28;20423;-43
2022/11/15 02:00:39;;;;;;;49.73;35.30;;;7.20;99.90;;;;;;5074773;28;20468;-45
2022/11/15 02:03:33;;;;;;;53.00;38.23;;;6.90;99.90;;;;;;5074718;28;20966;-44
2022/11/15 02:06:19;;;;;;;49.40;35.80;;;7.00;99.90;;;;;;5074395;28;20434;-44
2022/11/15 02:09:04;;;;;;;50.10;36.47;;;7.00;99.90;;;;;;5074604;28;20405;-44
2022/11/15 02:11:52;;;;;;;53.53;37.13;;;7.10;99.90;;;;;;5074624;28;20431;-44
2022/11/15 02:14:43;;;;;;;51.23;36.63;;;6.90;99.90;;;;;;5074767;28;20774;-44
2022/11/15 02:17:43;;;;;;;57.10;36.33;;;7.10;99.90;;;;;;5074772;28;20579;-43
2022/11/15 02:20:43;;;;;;;51.83;37.20;;;7.00;99.90;;;;;;5075363;28;20440;-43
2022/11/15 02:23:50;;;;;;;55.97;37.17;;;7.00;99.90;;;;;;5076616;28;20559;-45
2022/11/15 02:27:18;;;;;;;48.13;36.70;;;7.00;99.90;;;;;;5076816;28;20427;-43
2022/11/15 02:30:21;;;;;;;44.33;33.17;;;7.30;99.90;;;;;;5023887;28;20485;-43
2022/11/15 02:33:20;;;;;;;48.13;34.43;;;7.10;99.90;;;;;;5076334;28;20442;-42
2022/11/15 02:36:11;;;;;;;56.30;38.03;;;7.20;99.90;;;;;;5074275;28;20424;-45
2022/11/15 02:39:02;;;;;;;49.87;36.80;;;7.10;99.90;;;;;;5074104;28;20454;-44
2022/11/15 02:41:52;;;;;;;53.20;38.17;;;6.80;99.90;;;;;;5073791;28;20460;-44
2022/11/15 02:44:44;;;;;;;54.60;38.40;;;7.10;99.90;;;;;;5074551;28;20435;-46
2022/11/15 02:47:34;;;;;;;49.90;36.67;;;7.50;99.90;;;;;;5074670;28;20419;-47
2022/11/15 02:50:25;;;;;;;47.03;35.80;;;7.10;99.90;;;;;;5073055;28;20549;-44
2022/11/15 02:53:11;;;;;;;49.67;36.30;;;7.30;99.90;;;;;;5076414;28;20444;-44
2022/11/15 02:55:57;;;;;;;48.63;36.13;;;6.80;99.90;;;;;;5076022;28;20922;-44
2022/11/15 02:58:55;;;;;;;50.17;36.57;;;6.60;99.90;;;;;;5075931;28;20541;-44
2022/11/15 03:01:52;;;;;;;50.17;36.77;;;7.30;99.90;;;;;;5076029;28;20983;-45
2022/11/15 03:04:44;;;;;;;53.60;34.67;;;6.80;99.90;;;;;;5076735;28;20570;-44
2022/11/15 03:07:36;;;;;;;52.40;35.80;;;6.50;99.90;;;;;;5076458;28;20916;-44
2022/11/15 03:10:27;;;;;;;50.60;36.20;;;6.50;99.90;;;;;;5076374;28;20439;-47
2022/11/15 03:13:22;;;;;;;53.03;35.30;;;6.80;99.90;;;;;;5077905;28;20488;-46
2022/11/15 03:16:14;;;;;;;48.27;34.47;;;6.70;99.90;;;;;;5084294;28;20454;-43
2022/11/15 03:19:05;;;;;;;54.20;37.60;;;7.10;99.90;;;;;;5081053;28;20423;-43
2022/11/15 03:21:53;;;;;;;56.90;39.27;;;7.10;99.90;;;;;;5074638;28;20482;-46
2022/11/15 03:24:41;;;;;;;48.30;35.07;;;6.80;99.90;;;;;;5073455;28;20422;-46
2022/11/15 03:27:30;;;;;;;51.83;36.10;;;6.80;99.90;;;;;;5073573;28;20442;-46
2022/11/15 03:30:17;;;;;;;50.57;34.90;;;6.40;99.90;;;;;;5073403;28;20428;-42
2022/11/15 03:33:04;;;;;;;49.10;36.00;;;7.00;99.90;;;;;;5073780;28;20562;-45
2022/11/15 03:35:50;;;;;;;45.53;33.73;;;6.60;99.90;;;;;;5073106;28;20504;-44
2022/11/15 03:38:36;;;;;;;50.83;36.40;;;6.60;99.90;;;;;;5072955;28;20429;-43
2022/11/15 03:41:26;;;;;;;52.93;36.30;;;6.70;99.90;;;;;;5073100;28;20467;-45
2022/11/15 03:44:19;;;;;;;50.50;34.50;;;6.90;99.90;;;;;;5073116;28;20419;-45
2022/11/15 03:47:10;;;;;;;52.80;35.10;;;6.80;99.90;;;;;;5073223;28;20558;-45
2022/11/15 03:50:00;;;;;;;49.50;35.87;;;7.40;99.90;;;;;;5072577;28;20559;-44
2022/11/15 03:52:47;;;;;;;51.70;36.03;;;6.60;99.90;;;;;;5072703;28;20436;-43
2022/11/15 03:55:33;;;;;;;53.70;37.20;;;6.80;99.90;;;;;;5072509;28;20422;-43
2022/11/15 03:58:20;;;;;;;49.83;37.10;;;7.00;99.90;;;;;;5072429;28;20510;-44
2022/11/15 04:01:06;;;;;;;49.27;35.47;;;7.30;99.90;;;;;;5071961;28;20667;-44
2022/11/15 04:03:51;;;;;;;49.63;36.07;;;6.80;99.90;;;;;;5072783;28;21026;-43
2022/11/15 04:06:37;;;;;;;55.20;39.03;;;6.80;99.90;;;;;;5072658;28;20433;-44
2022/11/15 04:09:22;;;;;;;52.73;38.40;;;6.80;99.90;;;;;;5072088;28;20427;-44
2022/11/15 04:12:08;;;;;;;55.90;38.80;;;6.80;99.90;;;;;;5072085;28;20518;-46
2022/11/15 04:15:07;;;;;;;56.13;40.23;;;7.40;99.90;;;;;;5072638;28;20464;-43
2022/11/15 04:17:54;;;;;;;56.37;41.30;;;6.80;99.90;;;;;;5072778;28;20433;-44
2022/11/15 04:26:45;;;;;;;54.17;36.50;;;7.00;99.90;;;;;;5072347;28;20466;-43
2022/11/15 04:29:37;;;;;;;52.77;37.60;;;6.90;99.90;;;;;;5072234;28;20509;-42
2022/11/15 04:32:23;;;;;;;59.40;38.27;;;6.90;99.90;;;;;;5072140;28;20439;-44
2022/11/15 04:35:09;;;;;;;52.30;36.60;;;7.00;99.90;;;;;;5072620;28;20435;-42
2022/11/15 04:37:55;;;;;;;53.10;37.03;;;6.90;99.90;;;;;;5072932;28;20768;-44
2022/11/15 04:40:40;;;;;;;52.80;35.07;;;6.90;99.90;;;;;;5072896;28;20438;-43
2022/11/15 04:43:26;;;;;;;48.80;34.30;;;6.70;99.90;;;;;;5097897;22;20583;-45
2022/11/15 04:46:11;;;;;;;53.60;36.90;;;6.70;99.90;;;;;;5092646;28;20476;-46
2022/11/15 04:48:57;;;;;;;44.27;34.20;;;7.10;99.90;;;;;;5091830;28;20424;-45
2022/11/15 04:51:42;;;;;;;51.43;35.87;;;6.70;99.90;;;;;;5092537;28;20503;-47
2022/11/15 04:54:28;;;;;;;50.47;35.50;;;6.40;99.90;;;;;;5072509;28;20440;-46
2022/11/15 04:57:13;;;;;;;48.00;34.80;;;7.00;99.90;;;;;;5072145;28;20948;-46
2022/11/15 04:59:59;;;;;;;51.13;36.83;;;6.80;99.90;;;;;;5071974;28;20430;-47
2022/11/15 05:05:48;;;;;;;51.50;34.30;;;6.90;99.90;;;;;;5072138;28;20390;-47
2022/11/15 05:08:34;;;;;;;51.03;34.90;;;7.10;99.90;;;;;;5072025;28;20873;-46
2022/11/15 05:11:20;;;;;;;52.90;34.50;;;6.50;99.90;;;;;;5072105;28;20428;-46
2022/11/15 05:14:05;;;;;;;52.03;35.80;;;6.60;99.90;;;;;;5075338;28;20446;-46
2022/11/15 05:16:50;;;;;;;52.77;36.80;;;7.00;99.90;;;;;;5076230;28;20435;-46
2022/11/15 05:19:36;;;;;;;51.50;36.20;;;6.50;99.90;;;;;;5075371;28;20940;-46
2022/11/15 05:22:23;;;;;;;50.30;37.23;;;6.60;99.90;;;;;;5075951;28;20482;-46
2022/11/15 05:25:09;;;;;;;49.00;35.37;;;6.80;99.90;;;;;;5076197;28;20436;-46
2022/11/15 05:27:54;;;;;;;51.47;35.83;;;6.80;99.90;;;;;;5075966;28;20432;-47
2022/11/15 05:30:40;;;;;;;50.47;35.03;;;6.90;99.90;;;;;;5075524;28;20493;-46
2022/11/15 05:33:25;;;;;;;46.60;34.97;;;7.30;99.90;;;;;;5075531;28;20813;-46
2022/11/15 05:36:15;;;;;;;54.57;36.87;;;6.30;99.90;;;;;;5075461;28;20469;-47
2022/11/15 05:39:03;;;;;;;50.03;36.10;;;7.00;99.90;;;;;;5075009;28;20444;-45
2022/11/15 05:41:53;;;;;;;50.30;35.20;;;6.80;99.90;;;;;;5075701;28;20443;-47
2022/11/15 05:44:42;;;;;;;51.13;36.60;;;6.80;99.90;;;;;;5075836;28;20422;-47
2022/11/15 05:47:30;;;;;;;57.83;38.43;;;7.00;99.90;;;;;;5075724;28;20415;-47
2022/11/15 05:50:17;;;;;;;47.60;35.70;;;6.90;99.90;;;;;;5075866;28;20980;-47
2022/11/15 05:53:03;;;;;;;49.60;36.93;;;6.80;99.90;;;;;;5075174;28;20437;-46
2022/11/15 05:55:50;;;;;;;47.37;34.93;;;7.10;99.90;;;;;;5075304;28;20434;-47
2022/11/15 05:58:36;;;;;;;49.73;36.57;;;7.10;99.90;;;;;;5075145;28;20468;-46
2022/11/15 06:01:22;;;;;;;51.57;37.10;;;6.50;99.90;;;;;;5075139;28;20427;-48
2022/11/15 06:04:07;;;;;;;52.93;36.27;;;6.80;99.90;;;;;;5074901;28;20958;-46
2022/11/15 06:06:52;;;;;;;47.67;35.50;;;7.30;99.90;;;;;;5075240;28;20394;-47
2022/11/15 06:09:38;;;;;;;52.53;35.70;;;6.90;99.90;;;;;;5074680;28;20954;-46
2022/11/15 06:12:25;;;;;;;49.70;35.17;;;6.60;99.90;;;;;;5074612;28;20434;-46
2022/11/15 06:15:10;;;;;;;50.83;35.87;;;6.90;99.90;;;;;;5075229;28;20431;-46
2022/11/15 06:17:58;;;;;;;50.80;35.57;;;6.50;99.90;;;;;;5074898;28;20427;-46
2022/11/15 06:20:43;;;;;;;46.30;35.47;;;7.00;99.90;;;;;;5074426;28;20419;-46
2022/11/15 06:23:32;;;;;;;51.00;38.90;;;6.20;99.90;;;;;;5074135;28;20477;-47
2022/11/15 06:26:17;;;;;;;46.53;35.00;;;6.70;99.90;;;;;;5074950;28;20430;-48
2022/11/15 06:29:05;;;;;;;50.30;35.87;;;7.10;99.90;;;;;;5074278;28;20506;-48
2022/11/15 06:31:50;;;;;;;51.47;34.60;;;6.90;99.90;;;;;;5074506;28;20449;-44
2022/11/15 06:34:35;;;;;;;60.50;39.10;;;7.00;99.90;;;;;;5074316;28;20425;-49
2022/11/15 06:37:20;;;;;;;53.40;37.57;;;7.20;99.90;;;;;;5074554;28;20439;-46
2022/11/15 06:40:06;;;;;;;52.37;39.17;;;6.90;99.90;;;;;;5074354;28;20469;-47
2022/11/15 06:42:58;;;;;;;51.80;38.60;;;6.80;99.90;;;;;;5074850;28;20486;-48
2022/11/15 06:45:45;;;;;;;56.27;40.17;;;6.80;99.90;;;;;;5075798;28;20441;-47
2022/11/15 06:48:32;;;;;;;52.10;37.23;;;6.30;99.90;;;;;;5075578;28;20488;-46
2022/11/15 06:51:17;;;;;;;52.53;39.40;;;6.60;99.90;;;;;;5074727;28;20427;-48
2022/11/15 06:54:02;;;;;;;53.77;39.10;;;6.90;99.90;;;;;;5075236;28;20539;-48
2022/11/15 06:56:47;;;;;;;52.07;37.83;;;6.90;99.90;;;;;;5074431;28;20910;-48
2022/11/15 06:59:33;;;;;;;63.60;40.57;;;7.10;99.90;;;;;;5072728;28;20427;-45
2022/11/15 07:02:20;;;;;;;50.60;38.80;;;7.00;99.90;;;;;;5073770;28;20579;-47
2022/11/15 07:05:06;;;;;;;54.43;38.37;;;6.90;99.90;;;;;;5073696;28;20420;-46
2022/11/15 07:07:53;;;;;;;54.47;38.00;;;7.20;99.90;;;;;;5073842;28;20631;-46
2022/11/15 07:10:38;;;;;;;54.70;38.00;;;7.30;99.90;;;;;;5073584;28;20501;-46
2022/11/15 07:13:25;;;;;;;52.23;38.93;;;7.60;99.90;;;;;;5073908;28;20845;-50
2022/11/15 07:16:11;;;;;;;53.87;38.23;;;7.10;99.90;;;;;;5073302;28;20438;-47
2022/11/15 07:18:58;;;;;;;49.00;36.20;;;7.00;99.90;;;;;;5073181;28;20894;-48
2022/11/15 07:21:43;;;;;;;45.50;36.67;;;7.20;99.90;;;;;;5074064;28;20430;-47
2022/11/15 07:24:29;;;;;;;46.23;36.40;;;7.40;99.90;;;;;;5073271;28;20812;-47
2022/11/15 07:27:14;;;;;;;46.70;34.33;;;7.30;99.90;;;;;;5072781;28;20424;-48
2022/11/15 07:30:00;;;;;;;49.47;37.27;;;7.20;99.90;;;;;;5072770;28;20510;-47
2022/11/15 07:32:46;;;;;;;46.07;35.50;;;7.40;99.90;;;;;;5072791;28;20422;-47
2022/11/15 07:35:32;;;;;;;44.40;32.77;;;7.00;99.90;;;;;;5072414;28;20440;-47
2022/11/15 07:38:20;;;;;;;45.73;34.47;;;7.30;99.90;;;;;;5073260;28;20420;-48
2022/11/15 07:41:06;;;;;;;43.27;33.30;;;7.70;99.90;;;;;;5072273;28;20780;-47
2022/11/15 07:43:52;;;;;;;44.87;32.27;;;7.40;99.90;;;;;;5072121;28;20475;-47
2022/11/15 07:46:37;;;;;;;48.90;35.97;;;7.70;99.90;;;;;;5072725;28;20438;-46
2022/11/15 07:49:23;;;;;;;50.30;34.17;;;7.50;99.90;;;;;;5072280;28;20783;-47
2022/11/15 07:52:09;;;;;;;45.87;32.33;;;7.60;99.90;;;;;;5072019;28;20795;-46
2022/11/15 07:54:55;;;;;;;47.60;34.00;;;7.50;99.90;;;;;;5072681;28;20475;-47
2022/11/15 07:57:40;;;;;;;48.60;35.83;;;7.50;99.90;;;;;;5072152;28;20571;-46
2022/11/15 08:00:26;;;;;;;41.63;31.67;;;7.80;99.90;;;;;;5072488;28;20514;-46
2022/11/15 08:03:13;;;;;;;44.57;33.83;;;7.70;99.90;;;;;;5072191;28;20951;-46
2022/11/15 08:05:58;;;;;;;43.00;32.60;;;7.90;99.90;;;;;;5071959;28;20899;-46
2022/11/15 08:08:47;;;;;;;43.90;32.03;;;8.20;99.90;;;;;;5071301;28;20427;-46
2022/11/15 08:11:32;;;;;;;44.37;31.90;;;8.30;99.90;;;;;;5072298;28;20432;-47
2022/11/15 08:14:17;;;;;;;45.90;31.63;;;7.90;99.90;;;;;;5072185;28;20489;-47
2022/11/15 08:17:02;;;;;;;46.50;33.17;;;8.30;99.90;;;;;;5071755;28;20475;-47
2022/11/15 08:19:48;;;;;;;41.77;32.57;;;8.50;99.90;;;;;;5071848;28;20425;-46
2022/11/15 08:22:34;;;;;;;41.80;31.30;;;7.90;99.90;;;;;;5072052;28;20569;-46
2022/11/15 08:25:20;;;;;;;44.77;31.30;;;8.20;99.90;;;;;;5071906;28;20508;-46
2022/11/15 08:28:07;;;;;;;41.83;31.50;;;8.40;99.90;;;;;;5071863;28;20833;-46
2022/11/15 08:30:53;;;;;;;43.00;32.63;;;8.20;99.90;;;;;;5071569;28;20813;-46
2022/11/15 08:33:38;;;;;;;42.30;32.50;;;8.30;99.90;;;;;;5071728;28;20444;-47
2022/11/15 08:36:23;;;;;;;48.87;31.77;;;8.40;99.90;;;;;;5072073;28;20799;-46
2022/11/15 08:39:11;;;;;;;58.73;37.50;;;8.30;99.90;;;;;;5070919;28;20894;-48
2022/11/15 08:41:57;;;;;;;44.40;33.77;;;8.30;99.90;;;;;;5071901;28;20941;-47
2022/11/15 08:44:43;;;;;;;41.20;30.93;;;8.60;99.90;;;;;;5072020;28;20421;-47
2022/11/15 08:47:28;;;;;;;48.60;36.03;;;8.30;99.90;;;;;;5071834;28;20402;-47
2022/11/15 08:50:14;;;;;;;38.50;31.03;;;9.00;99.90;;;;;;5071656;28;20423;-47
2022/11/15 08:53:04;;;;;;;43.43;31.50;;;8.80;99.90;;;;;;5071738;28;20441;-47
2022/11/15 08:55:50;;;;;;;37.73;29.53;;;8.50;99.90;;;;;;5071863;28;20416;-47
2022/11/15 08:58:37;;;;;;;39.97;31.20;;;8.70;99.90;;;;;;5071817;28;20396;-47
2022/11/15 09:01:22;;;;;;;38.50;29.97;;;8.30;99.90;;;;;;5071282;28;20479;-48
2022/11/15 09:04:08;;;;;;;40.20;31.80;;;8.70;99.90;;;;;;5071354;28;20462;-46
2022/11/15 09:06:53;;;;;;;41.17;31.70;;;8.90;99.90;;;;;;5071737;28;20425;-46
2022/11/15 09:09:38;;;;;;;46.50;32.90;;;8.90;99.90;;;;;;5071986;28;20433;-47
2022/11/15 09:12:24;;;;;;;36.93;26.93;;;9.40;99.90;;;;;;5072149;28;20453;-47
2022/11/15 09:15:11;;;;;;;36.57;31.40;;;8.90;99.90;;;;;;5071513;28;20409;-47
2022/11/15 09:17:59;;;;;;;36.77;30.67;;;9.20;99.90;;;;;;5071345;28;20511;-47
2022/11/15 09:20:44;;;;;;;41.27;28.83;;;9.40;99.90;;;;;;5071713;28;20464;-47
2022/11/15 09:23:30;;;;;;;42.33;32.83;;;9.40;99.90;;;;;;5071565;28;20984;-44
2022/11/15 09:26:15;;;;;;;38.50;31.00;;;9.40;99.90;;;;;;5072108;28;20209;-46
2022/11/15 09:29:02;;;;;;;34.13;28.40;;;9.20;99.90;;;;;;5071346;28;20473;-47
2022/11/15 09:31:48;;;;;;;33.53;25.73;;;9.90;99.90;;;;;;5071797;28;20874;-47
2022/11/15 09:34:33;;;;;;;32.33;27.07;;;9.30;99.90;;;;;;5071449;28;20425;-47
2022/11/15 09:37:19;;;;;;;36.10;27.77;;;9.70;99.90;;;;;;5072229;28;20499;-46
2022/11/15 09:40:04;;;;;;;36.33;25.97;;;9.60;99.90;;;;;;5071239;28;20780;-48
2022/11/15 09:43:02;;;;;;;34.13;27.70;;;9.60;99.90;;;;;;5070621;28;20464;-48
2022/11/15 09:45:58;;;;;;;33.40;25.30;;;9.70;99.90;;;;;;5071203;28;20499;-47
2022/11/15 09:48:53;;;;;;;41.87;28.53;;;9.50;99.90;;;;;;5070969;28;20436;-48
2022/11/15 09:51:46;;;;;;;37.93;27.83;;;9.40;99.90;;;;;;5072624;28;21008;-46
2022/11/15 09:54:24;;;;;;;37.57;28.63;;;9.10;99.90;;;;;;5072559;28;20428;-47
2022/11/15 09:56:52;;;;;;;35.33;29.60;;;9.70;99.90;;;;;;5071704;28;20494;-47
2022/11/15 09:59:32;;;;;;;34.90;27.73;;;9.70;99.90;;;;;;5073181;28;20448;-47
2022/11/15 10:02:04;;;;;;;38.20;27.70;;;9.60;99.90;;;;;;5074540;28;20425;-47
2022/11/15 10:04:32;;;;;;;36.23;28.87;;;9.80;99.90;;;;;;5074397;28;20814;-47
2022/11/15 10:07:03;;;;;;;36.13;26.10;;;9.60;99.90;;;;;;5074255;28;20434;-47
2022/11/15 10:09:36;;;;;;;42.73;27.00;;;10.20;99.90;;;;;;5074026;28;20437;-47
2022/11/15 10:12:04;;;;;;;33.57;25.83;;;9.60;99.90;;;;;;5074478;28;20408;-47
2022/11/15 10:14:31;;;;;;;33.00;27.00;;;9.80;99.90;;;;;;5074202;28;20594;-47
2022/11/15 10:17:56;;;;;;;38.70;26.93;;;10.30;99.90;;;;;;5074359;28;20404;-48
2022/11/15 10:20:26;;;;;;;33.90;25.33;;;10.10;99.90;;;;;;5073840;28;20434;-48
2022/11/15 10:22:56;;;;;;;40.00;27.50;;;10.10;99.90;;;;;;5073793;28;20488;-47
2022/11/15 10:25:25;;;;;;;32.50;26.30;;;10.30;99.90;;;;;;5074200;28;20855;-47
2022/11/15 10:27:56;;;;;;;33.20;26.87;;;10.10;99.90;;;;;;5073969;28;20412;-47
2022/11/15 10:30:24;;;;;;;32.37;25.30;;;10.60;99.90;;;;;;5073537;28;20428;-47
2022/11/15 10:32:51;;;;;;;30.80;23.13;;;10.50;99.90;;;;;;5073361;28;20453;-48
2022/11/15 10:35:27;;;;;;;33.33;24.27;;;10.40;99.90;;;;;;5073852;28;20441;-48
2022/11/15 10:38:06;;;;;;;31.27;23.70;;;10.20;99.90;;;;;;5074072;28;20408;-47
2022/11/15 10:40:33;;;;;;;25.73;21.87;;;10.50;99.90;;;;;;5074197;28;20429;-47
2022/11/15 10:43:12;;;;;;;28.00;22.57;;;10.50;99.90;;;;;;5074130;28;20473;-47
2022/11/15 10:45:40;;;;;;;29.03;23.20;;;10.80;99.90;;;;;;5074418;28;20453;-47
2022/11/15 10:48:24;;;;;;;31.20;23.83;;;10.20;99.90;;;;;;5072622;28;20442;-48
2022/11/15 10:50:54;;;;;;;28.30;22.80;;;10.50;99.90;;;;;;5073911;28;20446;-45
2022/11/15 10:53:30;;;;;;;27.07;22.33;;;10.40;99.90;;;;;;5073846;28;20458;-46
2022/11/15 10:56:02;;;;;;;27.63;21.90;;;10.60;99.90;;;;;;5073357;28;20533;-46
2022/11/15 10:58:34;;;;;;;50.73;40.20;;;11.10;99.90;;;;;;5073372;28;20430;-47
2022/11/15 11:01:11;;;;;;;43.97;36.27;;;10.80;99.90;;;;;;5073221;28;20932;-47
2022/11/15 11:03:40;;;;;;;30.03;25.43;;;10.70;99.90;;;;;;5073488;28;20469;-46
2022/11/15 11:06:11;;;;;;;26.47;22.27;;;10.50;99.90;;;;;;5073653;28;20444;-46
2022/11/15 11:08:38;;;;;;;30.20;23.97;;;10.70;99.90;;;;;;5055325;28;20431;-47
2022/11/15 11:11:06;;;;;;;29.53;21.10;;;10.30;99.90;;;;;;5054391;28;20445;-47
2022/11/15 11:13:35;;;;;;;26.60;19.40;;;10.70;99.90;;;;;;5072998;28;20452;-46
2022/11/15 11:16:18;;;;;;;25.03;20.47;;;10.90;99.90;;;;;;5072844;28;20808;-47
2022/11/15 11:18:52;;;;;;;25.07;20.80;;;10.70;99.90;;;;;;5072891;28;20513;-46
2022/11/15 11:21:27;;;;;;;26.10;22.03;;;11.00;99.90;;;;;;5072732;28;20447;-47
2022/11/15 11:23:59;;;;;;;28.40;21.10;;;11.00;99.90;;;;;;5072568;28;20493;-47
2022/11/15 11:26:39;;;;;;;28.10;21.03;;;11.20;99.90;;;;;;5072850;28;20415;-46
2022/11/15 11:29:21;;;;;;;26.60;21.20;;;11.20;99.90;;;;;;5072442;28;20444;-48
2022/11/15 11:31:56;;;;;;;29.73;21.43;;;11.00;99.90;;;;;;5072874;28;20445;-46
2022/11/15 11:34:37;;;;;;;22.70;20.00;;;10.90;99.90;;;;;;5072455;28;20940;-47
2022/11/15 11:37:13;;;;;;;38.23;20.23;;;11.40;99.90;;;;;;5054740;28;20420;-47
2022/11/15 11:39:47;;;;;;;25.70;18.63;;;11.10;99.90;;;;;;5072243;28;20504;-46
2022/11/15 11:42:20;;;;;;;26.53;20.90;;;11.20;99.90;;;;;;5072519;28;20424;-47
2022/11/15 11:44:59;;;;;;;32.20;22.33;;;11.20;99.90;;;;;;5072722;28;20542;-48
2022/11/15 11:47:33;;;;;;;22.80;19.50;;;11.30;99.90;;;;;;5072300;28;20440;-47
2022/11/15 11:50:03;;;;;;;23.47;19.10;;;11.00;99.90;;;;;;5072453;28;20838;-46
2022/11/15 11:52:36;;;;;;;24.00;19.70;;;11.20;99.90;;;;;;5072890;28;20452;-47
2022/11/15 11:55:11;;;;;;;22.77;20.33;;;11.30;99.90;;;;;;5072826;28;20413;-48
2022/11/15 11:57:44;;;;;;;25.67;19.10;;;11.40;99.90;;;;;;5052363;28;20428;-47
2022/11/15 12:00:19;;;;;;;25.53;21.27;;;11.20;99.90;;;;;;5051883;28;20442;-47
2022/11/15 12:02:51;;;;;;;26.27;20.00;;;11.40;99.90;;;;;;5052058;28;20456;-47
2022/11/15 12:05:27;;;;;;;26.67;19.87;;;11.60;99.90;;;;;;5052497;28;20481;-45
2022/11/15 12:08:02;;;;;;;29.60;21.30;;;11.40;99.90;;;;;;5034317;28;20447;-47
2022/11/15 12:10:33;;;;;;;26.13;20.00;;;11.80;99.90;;;;;;5051596;28;20779;-46
2022/11/15 12:13:05;;;;;;;25.47;20.37;;;11.80;99.90;;;;;;5052698;28;20538;-47
2022/11/15 12:15:36;;;;;;;23.77;20.03;;;11.40;99.90;;;;;;5052701;28;20442;-47
2022/11/15 12:18:03;;;;;;;26.37;20.67;;;11.50;99.90;;;;;;5052029;28;20442;-47
2022/11/15 12:20:35;;;;;;;23.00;20.50;;;11.80;99.90;;;;;;5050470;28;20969;-48
2022/11/15 12:23:08;;;;;;;27.63;21.40;;;11.50;99.90;;;;;;5051651;28;20460;-47
2022/11/15 12:25:44;;;;;;;26.63;19.50;;;11.30;99.90;;;;;;5052103;28;20484;-46
2022/11/15 12:28:16;;;;;;;28.00;21.77;;;12.00;99.90;;;;;;5051879;28;20799;-47
2022/11/15 12:30:47;;;;;;;26.40;19.67;;;11.40;99.90;;;;;;5052083;28;20752;-46
2022/11/15 12:33:34;;;;;;;24.73;21.60;;;11.50;99.90;;;;;;5052345;28;20451;-46
2022/11/15 12:36:03;;;;;;;23.13;19.67;;;11.50;99.90;;;;;;5053470;28;20922;-47
2022/11/15 12:38:57;;;;;;;22.90;18.70;;;11.80;99.90;;;;;;5052492;28;20406;-47
2022/11/15 12:41:27;;;;;;;28.03;20.97;;;11.70;99.90;;;;;;5053624;28;20527;-49
2022/11/15 12:43:54;;;;;;;26.47;21.00;;;12.10;99.90;;;;;;5036168;28;20579;-49
2022/11/15 12:46:44;;;;;;;25.87;20.50;;;11.70;99.90;;;;;;5054073;28;20446;-47
2022/11/15 12:49:38;;;;;;;32.73;19.57;;;12.20;99.90;;;;;;5053436;28;20479;-47
2022/11/15 12:52:08;;;;;;;32.07;20.97;;;11.60;99.90;;;;;;5052834;28;20440;-47
2022/11/15 12:54:58;;;;;;;23.30;20.63;;;11.60;99.90;;;;;;5052671;28;20489;-48
2022/11/15 12:57:44;;;;;;;24.00;19.47;;;11.90;99.90;;;;;;5073382;28;20451;-48
2022/11/15 13:00:45;;;;;;;24.93;20.50;;;11.90;99.90;;;;;;5073952;28;20416;-47
2022/11/15 13:03:23;;;;;;;24.70;19.17;;;11.60;99.90;;;;;;5055177;28;20524;-46
2022/11/15 13:05:58;;;;;;;25.80;19.57;;;11.50;99.90;;;;;;5072885;28;20500;-47
2022/11/15 13:08:39;;;;;;;27.53;20.37;;;12.20;99.90;;;;;;5071478;28;20406;-47
2022/11/15 13:11:44;;;;;;;21.30;19.03;;;11.90;99.90;;;;;;5071208;28;20534;-46
2022/11/15 13:14:44;;;;;;;21.40;17.93;;;11.90;99.90;;;;;;5071667;28;20508;-46
2022/11/15 13:17:30;;;;;;;24.10;20.00;;;12.00;99.90;;;;;;5071937;28;20435;-47
2022/11/15 13:20:01;;;;;;;28.23;20.50;;;11.30;99.90;;;;;;5071217;28;20471;-48
2022/11/15 13:22:51;;;;;;;23.20;17.87;;;12.40;99.90;;;;;;5072405;28;20459;-46
2022/11/15 13:25:36;;;;;;;24.17;18.30;;;12.10;99.90;;;;;;5073188;28;20478;-46
2022/11/15 13:28:10;;;;;;;20.83;18.37;;;11.30;99.90;;;;;;5072414;28;20443;-48
2022/11/15 13:30:38;;;;;;;22.30;17.53;;;11.80;99.90;;;;;;5072856;28;20520;-47
2022/11/15 13:33:11;;;;;;;19.60;17.00;;;11.70;99.90;;;;;;5073099;28;20497;-46
2022/11/15 13:35:41;;;;;;;24.20;17.80;;;11.80;99.90;;;;;;5077205;28;20915;-46
2022/11/15 13:38:25;;;;;;;27.90;18.80;;;11.90;99.90;;;;;;5075804;28;20436;-47
2022/11/15 13:40:52;;;;;;;19.83;17.63;;;12.10;99.90;;;;;;5075245;28;20838;-47
2022/11/15 13:43:29;;;;;;;27.47;19.20;;;11.90;99.90;;;;;;5074586;28;20459;-46
2022/11/15 13:46:11;;;;;;;23.73;17.10;;;12.30;99.90;;;;;;5074929;28;20483;-47
2022/11/15 13:48:38;;;;;;;22.13;18.03;;;12.00;99.90;;;;;;5074665;28;20830;-49
2022/11/15 13:51:08;;;;;;;24.00;18.97;;;12.00;99.90;;;;;;5056711;28;20801;-47
2022/11/15 13:53:40;;;;;;;21.40;17.40;;;11.90;99.90;;;;;;5074615;28;20536;-46
2022/11/15 13:56:08;;;;;;;166.63;126.97;;;12.10;99.90;;;;;;5074634;28;20493;-46
2022/11/15 13:58:37;;;;;;;37.70;30.60;;;11.90;99.90;;;;;;5074040;28;20504;-47
2022/11/15 14:01:06;;;;;;;21.33;16.80;;;12.20;99.90;;;;;;5074690;28;20432;-48
2022/11/15 14:03:34;;;;;;;22.23;16.40;;;12.20;99.90;;;;;;5074410;28;20452;-47
2022/11/15 14:06:07;;;;;;;24.90;17.80;;;12.10;99.90;;;;;;5074618;28;20527;-47